Fukuyoshimaru No.1 — JD3996 — position and weather

sailwx.info

Track history (hours):
 
Tides and Currents Weather Stations Pressure Air Temp Water Temp Dewpoint Dewpoint Depression Visibility Wind Speed Wind Dir Waves Ship Positions

Fukuyoshimaru No.1

Last reported at 2018-Feb-18 23:25 UTC. Time now 2018-Feb-18 23:59 UTC.
Position N 35°32' E 139°46'.

Length 76 m; draft 4 m.

Type: Cargo ship. MMSI: 431007528.

Date/timePositionNaut miles runAvg speedWind from/ knotsBaromVisibWave heightAir tempDewpointWater temp
2018-Feb-18 23:25N 35°32' E 139°46'0 0.0
2018-Feb-18 22:49N 35°32' E 139°46'0 0.0
2018-Feb-18 22:25N 35°32' E 139°46'0 0.0
2018-Feb-18 21:55N 35°32' E 139°46'0 0.0
2018-Feb-18 21:28N 35°32' E 139°46'2 4.3
2018-Feb-18 21:00N 35°30' E 139°47'2 3.3
2018-Feb-18 20:28N 35°29' E 139°46'0 0.0
2018-Feb-18 19:58N 35°29' E 139°46'0 0.1
2018-Feb-18 19:28N 35°29' E 139°46'0 0.0
2018-Feb-18 18:58N 35°29' E 139°46'0 0.0
2018-Feb-18 18:28N 35°29' E 139°46'0 0.0
2018-Feb-18 17:58N 35°29' E 139°46'0 0.0
2018-Feb-18 17:25N 35°29' E 139°46'0 0.0
2018-Feb-18 16:58N 35°29' E 139°46'0 0.0
2018-Feb-18 16:25N 35°29' E 139°46'0 0.0
2018-Feb-18 15:58N 35°29' E 139°46'0 0.0
2018-Feb-18 15:30N 35°29' E 139°46'1 1.4
2018-Feb-18 15:00N 35°28' E 139°46'3 7.0
2018-Feb-18 14:30N 35°25' E 139°47'510.5
2018-Feb-18 14:00N 35°20' E 139°44'510.6
2018-Feb-18 13:30N 35°15' E 139°47'511.0
2018-Feb-18 13:00N 35°10' E 139°46'611.4
2018-Feb-18 12:27N 35°04' E 139°44'511.6
2018-Feb-18 11:59N 35°00' E 139°39'1812.5
2018-Feb-18 10:35N 34°51' E 139°21'212.9
2018-Feb-18 10:24N 34°49' E 139°19'513.2
2018-Feb-18 10:00N 34°46' E 139°13'712.2
2018-Feb-18 09:26N 34°42' E 139°06'511.7
2018-Feb-18 09:00N 34°39' E 139°02'611.3
2018-Feb-18 08:30N 34°36' E 138°56'611.5
2018-Feb-18 08:00N 34°34' E 138°49'611.5
2018-Feb-18 07:30N 34°34' E 138°42'611.6
2018-Feb-18 07:00N 34°34' E 138°35'612.0
2018-Feb-18 06:27N 34°34' E 138°27'812.1
2018-Feb-18 05:50N 34°33' E 138°18'16710.5
2018-Feb-17 13:54N 33°50' E 135°04'512.8
2018-Feb-17 13:30N 33°54' E 135°00'612.7
2018-Feb-17 13:00N 34°01' E 134°59'612.5
2018-Feb-17 12:30N 34°07' E 134°59'612.5
2018-Feb-17 12:00N 34°13' E 134°59'611.9
2018-Feb-17 11:30N 34°19' E 134°59'612.4
2018-Feb-17 11:00N 34°25' E 135°01'612.2
2018-Feb-17 10:30N 34°31' E 135°03'510.0
2018-Feb-17 10:00N 34°36' E 135°03'611.6
2018-Feb-17 09:31N 34°36' E 134°56'712.7
2018-Feb-17 08:59N 34°39' E 134°49'612.9
2018-Feb-17 08:30N 34°43' E 134°43'4 2.6
2018-Feb-17 06:48N 34°46' E 134°40'0 0.0
2018-Feb-17 05:19N 34°46' E 134°40'0 0.0
2018-Feb-17 01:34N 34°46' E 134°40'0 0.0
2018-Feb-17 01:22N 34°46' E 134°40'0 0.0
2018-Feb-16 23:07N 34°46' E 134°40'0 0.0
2018-Feb-16 22:51N 34°46' E 134°40'0 0.0
2018-Feb-16 21:41N 34°46' E 134°40'1 3.6
2018-Feb-16 21:31N 34°46' E 134°39'0 0.0
2018-Feb-16 00:17N 34°47' E 134°39'1 4.4
2018-Feb-15 23:59N 34°45' E 134°39'0 0.1
2018-Feb-15 23:26N 34°45' E 134°39'0 0.0
2018-Feb-15 22:20N 34°45' E 134°39'0 0.0
2018-Feb-15 21:58N 34°45' E 134°39'0 0.1
2018-Feb-15 21:29N 34°45' E 134°39'0 0.1
2018-Feb-15 20:45N 34°45' E 134°39'0 0.2
2018-Feb-15 20:30N 34°45' E 134°39'0 0.0
2018-Feb-15 19:40N 34°45' E 134°39'0 2.0
2018-Feb-15 19:26N 34°45' E 134°39'511.5
2018-Feb-15 19:00N 34°42' E 134°45'611.5
2018-Feb-15 18:31N 34°38' E 134°49'510.0
2018-Feb-15 18:01N 34°36' E 134°55'510.0
2018-Feb-15 17:30N 34°38' E 135°01'4 8.5
2018-Feb-15 17:01N 34°35' E 135°05'510.5
2018-Feb-15 16:31N 34°30' E 135°04'611.5
2018-Feb-15 16:00N 34°24' E 135°02'611.2
2018-Feb-15 15:31N 34°19' E 134°60'4 8.8
2018-Feb-15 15:00N 34°15' E 135°02'5 9.8
2018-Feb-15 14:31N 34°14' E 135°07'0 0.8
2018-Feb-15 14:00N 34°14' E 135°08'0 0.0
2018-Feb-15 13:30N 34°14' E 135°08'0 0.0
2018-Feb-15 13:00N 34°14' E 135°08'0 0.0
2018-Feb-15 12:31N 34°14' E 135°08'0 0.0
2018-Feb-15 12:00N 34°14' E 135°08'0 0.0
2018-Feb-15 11:30N 34°14' E 135°08'0 0.0
2018-Feb-15 11:01N 34°14' E 135°08'0 0.0
2018-Feb-15 10:31N 34°14' E 135°08'0 0.0
2018-Feb-15 10:00N 34°14' E 135°08'0 0.0
2018-Feb-15 09:30N 34°14' E 135°08'0 0.0
2018-Feb-15 09:00N 34°14' E 135°08'0 0.0
2018-Feb-15 08:31N 34°14' E 135°08'0 0.0
2018-Feb-15 08:00N 34°14' E 135°08'0 0.0
2018-Feb-15 07:30N 34°14' E 135°08'0 0.0
2018-Feb-15 07:01N 34°14' E 135°08'0 0.0
2018-Feb-15 06:30N 34°14' E 135°08'0 0.0
2018-Feb-15 06:01N 34°14' E 135°08'0 0.0
2018-Feb-15 05:30N 34°14' E 135°08'0 0.0
2018-Feb-15 05:01N 34°14' E 135°08'0 0.0
2018-Feb-15 04:31N 34°14' E 135°08'0 0.0
2018-Feb-15 04:01N 34°14' E 135°08'0 0.0
2018-Feb-15 03:31N 34°14' E 135°08'1 1.6
2018-Feb-15 03:01N 34°14' E 135°07'1 2.2
2018-Feb-15 02:30N 34°15' E 135°06'0 0.0
2018-Feb-15 02:00N 34°15' E 135°06'0 0.0
2018-Feb-15 01:31N 34°15' E 135°06'0 0.0
2018-Feb-15 01:01N 34°15' E 135°06'0 0.0
2018-Feb-15 00:31N 34°15' E 135°06'0 0.0
2018-Feb-15 00:01N 34°15' E 135°06'0 0.0
2018-Feb-14 23:31N 34°15' E 135°06'0 0.0
2018-Feb-14 23:00N 34°15' E 135°06'0 0.0
2018-Feb-14 22:30N 34°15' E 135°06'0 0.0
2018-Feb-14 22:00N 34°15' E 135°06'0 0.0
2018-Feb-14 21:30N 34°15' E 135°06'4 7.6
2018-Feb-14 21:01N 34°11' E 135°05'612.5
2018-Feb-14 20:30N 34°05' E 135°03'612.5
2018-Feb-14 20:00N 33°59' E 135°02'612.3
2018-Feb-14 19:31N 33°53' E 135°02'173 9.4
2018-Feb-14 01:08N 34°36' E 138°24'110.1
2018-Feb-14 01:00N 34°37' E 138°26'910.0
2018-Feb-14 00:08N 34°36' E 138°36'3 9.7
2018-Feb-13 23:49N 34°36' E 138°40'7 8.8
2018-Feb-13 22:58N 34°35' E 138°49'5 8.8
2018-Feb-13 22:27N 34°35' E 138°54'5 9.6
2018-Feb-13 21:56N 34°37' E 139°00'4 9.4
2018-Feb-13 21:28N 34°39' E 139°04'8 9.7
2018-Feb-13 20:36N 34°45' E 139°12'2 9.5
2018-Feb-13 20:25N 34°46' E 139°14'1210.3
2018-Feb-13 19:14N 34°49' E 139°28'611.9
2018-Feb-13 18:42N 34°49' E 139°36'  
Track history (hours):
 
Tides and Currents Weather Stations Pressure Air Temp Water Temp Dewpoint Dewpoint Depression Visibility Wind Speed Wind Dir Waves Ship Positions

Fukuyoshimaru No.1

Last reported at 2018-Feb-18 23:25 UTC. Time now 2018-Feb-18 23:59 UTC.
Position N 35°32' E 139°46'.

Length 76 m; draft 4 m.

Type: Cargo ship. MMSI: 431007528.

Date/timePositionNaut miles runAvg speedWind from/ knotsBaromVisibWave heightAir tempDewpointWater temp
2018-Feb-18 23:25N 35°32' E 139°46'0 0.0
2018-Feb-18 22:49N 35°32' E 139°46'0 0.0
2018-Feb-18 22:25N 35°32' E 139°46'0 0.0
2018-Feb-18 21:55N 35°32' E 139°46'0 0.0
2018-Feb-18 21:28N 35°32' E 139°46'2 4.3
2018-Feb-18 21:00N 35°30' E 139°47'2 3.3
2018-Feb-18 20:28N 35°29' E 139°46'0 0.0
2018-Feb-18 19:58N 35°29' E 139°46'0 0.1
2018-Feb-18 19:28N 35°29' E 139°46'0 0.0
2018-Feb-18 18:58N 35°29' E 139°46'0 0.0
2018-Feb-18 18:28N 35°29' E 139°46'0 0.0
2018-Feb-18 17:58N 35°29' E 139°46'0 0.0
2018-Feb-18 17:25N 35°29' E 139°46'0 0.0
2018-Feb-18 16:58N 35°29' E 139°46'0 0.0
2018-Feb-18 16:25N 35°29' E 139°46'0 0.0
2018-Feb-18 15:58N 35°29' E 139°46'0 0.0
2018-Feb-18 15:30N 35°29' E 139°46'1 1.4
2018-Feb-18 15:00N 35°28' E 139°46'3 7.0
2018-Feb-18 14:30N 35°25' E 139°47'510.5
2018-Feb-18 14:00N 35°20' E 139°44'510.6
2018-Feb-18 13:30N 35°15' E 139°47'511.0
2018-Feb-18 13:00N 35°10' E 139°46'611.4
2018-Feb-18 12:27N 35°04' E 139°44'511.6
2018-Feb-18 11:59N 35°00' E 139°39'1812.5
2018-Feb-18 10:35N 34°51' E 139°21'212.9
2018-Feb-18 10:24N 34°49' E 139°19'513.2
2018-Feb-18 10:00N 34°46' E 139°13'712.2
2018-Feb-18 09:26N 34°42' E 139°06'511.7
2018-Feb-18 09:00N 34°39' E 139°02'611.3
2018-Feb-18 08:30N 34°36' E 138°56'611.5
2018-Feb-18 08:00N 34°34' E 138°49'611.5
2018-Feb-18 07:30N 34°34' E 138°42'611.6
2018-Feb-18 07:00N 34°34' E 138°35'612.0
2018-Feb-18 06:27N 34°34' E 138°27'812.1
2018-Feb-18 05:50N 34°33' E 138°18'16710.5
2018-Feb-17 13:54N 33°50' E 135°04'512.8
2018-Feb-17 13:30N 33°54' E 135°00'612.7
2018-Feb-17 13:00N 34°01' E 134°59'612.5
2018-Feb-17 12:30N 34°07' E 134°59'612.5
2018-Feb-17 12:00N 34°13' E 134°59'611.9
2018-Feb-17 11:30N 34°19' E 134°59'612.4
2018-Feb-17 11:00N 34°25' E 135°01'612.2
2018-Feb-17 10:30N 34°31' E 135°03'510.0
2018-Feb-17 10:00N 34°36' E 135°03'611.6
2018-Feb-17 09:31N 34°36' E 134°56'712.7
2018-Feb-17 08:59N 34°39' E 134°49'612.9
2018-Feb-17 08:30N 34°43' E 134°43'4 2.6
2018-Feb-17 06:48N 34°46' E 134°40'0 0.0
2018-Feb-17 05:19N 34°46' E 134°40'0 0.0
2018-Feb-17 01:34N 34°46' E 134°40'0 0.0
2018-Feb-17 01:22N 34°46' E 134°40'0 0.0
2018-Feb-16 23:07N 34°46' E 134°40'0 0.0
2018-Feb-16 22:51N 34°46' E 134°40'0 0.0
2018-Feb-16 21:41N 34°46' E 134°40'1 3.6
2018-Feb-16 21:31N 34°46' E 134°39'0 0.0
2018-Feb-16 00:17N 34°47' E 134°39'1 4.4
2018-Feb-15 23:59N 34°45' E 134°39'0 0.1
2018-Feb-15 23:26N 34°45' E 134°39'0 0.0
2018-Feb-15 22:20N 34°45' E 134°39'0 0.0
2018-Feb-15 21:58N 34°45' E 134°39'0 0.1
2018-Feb-15 21:29N 34°45' E 134°39'0 0.1
2018-Feb-15 20:45N 34°45' E 134°39'0 0.2
2018-Feb-15 20:30N 34°45' E 134°39'0 0.0
2018-Feb-15 19:40N 34°45' E 134°39'0 2.0
2018-Feb-15 19:26N 34°45' E 134°39'511.5
2018-Feb-15 19:00N 34°42' E 134°45'611.5
2018-Feb-15 18:31N 34°38' E 134°49'510.0
2018-Feb-15 18:01N 34°36' E 134°55'510.0
2018-Feb-15 17:30N 34°38' E 135°01'4 8.5
2018-Feb-15 17:01N 34°35' E 135°05'510.5
2018-Feb-15 16:31N 34°30' E 135°04'611.5
2018-Feb-15 16:00N 34°24' E 135°02'611.2
2018-Feb-15 15:31N 34°19' E 134°60'4 8.8
2018-Feb-15 15:00N 34°15' E 135°02'5 9.8
2018-Feb-15 14:31N 34°14' E 135°07'0 0.8
2018-Feb-15 14:00N 34°14' E 135°08'0 0.0
2018-Feb-15 13:30N 34°14' E 135°08'0 0.0
2018-Feb-15 13:00N 34°14' E 135°08'0 0.0
2018-Feb-15 12:31N 34°14' E 135°08'0 0.0
2018-Feb-15 12:00N 34°14' E 135°08'0 0.0
2018-Feb-15 11:30N 34°14' E 135°08'0 0.0
2018-Feb-15 11:01N 34°14' E 135°08'0 0.0
2018-Feb-15 10:31N 34°14' E 135°08'0 0.0
2018-Feb-15 10:00N 34°14' E 135°08'0 0.0
2018-Feb-15 09:30N 34°14' E 135°08'0 0.0
2018-Feb-15 09:00N 34°14' E 135°08'0 0.0
2018-Feb-15 08:31N 34°14' E 135°08'0 0.0
2018-Feb-15 08:00N 34°14' E 135°08'0 0.0
2018-Feb-15 07:30N 34°14' E 135°08'0 0.0
2018-Feb-15 07:01N 34°14' E 135°08'0 0.0
2018-Feb-15 06:30N 34°14' E 135°08'0 0.0
2018-Feb-15 06:01N 34°14' E 135°08'0 0.0
2018-Feb-15 05:30N 34°14' E 135°08'0 0.0
2018-Feb-15 05:01N 34°14' E 135°08'0 0.0
2018-Feb-15 04:31N 34°14' E 135°08'0 0.0
2018-Feb-15 04:01N 34°14' E 135°08'0 0.0
2018-Feb-15 03:31N 34°14' E 135°08'1 1.6
2018-Feb-15 03:01N 34°14' E 135°07'1 2.2
2018-Feb-15 02:30N 34°15' E 135°06'0 0.0
2018-Feb-15 02:00N 34°15' E 135°06'0 0.0
2018-Feb-15 01:31N 34°15' E 135°06'0 0.0
2018-Feb-15 01:01N 34°15' E 135°06'0 0.0
2018-Feb-15 00:31N 34°15' E 135°06'0 0.0
2018-Feb-15 00:01N 34°15' E 135°06'0 0.0
2018-Feb-14 23:31N 34°15' E 135°06'0 0.0
2018-Feb-14 23:00N 34°15' E 135°06'0 0.0
2018-Feb-14 22:30N 34°15' E 135°06'0 0.0
2018-Feb-14 22:00N 34°15' E 135°06'0 0.0
2018-Feb-14 21:30N 34°15' E 135°06'4 7.6
2018-Feb-14 21:01N 34°11' E 135°05'612.5
2018-Feb-14 20:30N 34°05' E 135°03'612.5
2018-Feb-14 20:00N 33°59' E 135°02'612.3
2018-Feb-14 19:31N 33°53' E 135°02'173 9.4
2018-Feb-14 01:08N 34°36' E 138°24'110.1
2018-Feb-14 01:00N 34°37' E 138°26'910.0
2018-Feb-14 00:08N 34°36' E 138°36'3 9.7
2018-Feb-13 23:49N 34°36' E 138°40'7 8.8
2018-Feb-13 22:58N 34°35' E 138°49'5 8.8
2018-Feb-13 22:27N 34°35' E 138°54'5 9.6
2018-Feb-13 21:56N 34°37' E 139°00'4 9.4
2018-Feb-13 21:28N 34°39' E 139°04'8 9.7
2018-Feb-13 20:36N 34°45' E 139°12'2 9.5
2018-Feb-13 20:25N 34°46' E 139°14'1210.3
2018-Feb-13 19:14N 34°49' E 139°28'611.9
2018-Feb-13 18:42N 34°49' E 139°36'  

Dump ship's entire track history